Terminal Aerodrome Forecast
Issued by NWS Twin Cities, MN

Home | Current Version | Previous Version | Text Only | Print | Product List | Glossary Off
Versions: 1 2 3 4 5 6 7 8 9 10 11 12 13 14 15 16 17 18 19 20 21 22 23 24 25 26 27 28 29 30 31 32

040
FTUS43 KMPX 272343
TAFMSP
TAF
KMSP 272343Z 2800/2906 22005KT P6SM FEW015 OVC030
     FM280200 VRB03KT P6SM BKN035
     FM280800 14003KT 6SM BR SCT005 SCT015
     FM281000 15005KT 4SM BR VCSH BKN005
     FM281400 15006KT P6SM SCT025 BKN120
     FM281800 17008KT P6SM SCT040 SCT250=

USA.gov is the U.S. government's official web portal to all federal, state and local government web resources and services.